createdAt,value
2023-09-28T00:01:56.674Z,14.81
2023-09-28T00:05:00.468Z,14.77
2023-09-28T00:08:06.592Z,14.71
2023-09-28T00:11:10.736Z,14.69
2023-09-28T00:14:14.521Z,14.68
2023-09-28T00:17:18.425Z,14.64
2023-09-28T00:20:24.372Z,14.62
2023-09-28T00:23:29.829Z,14.54
2023-09-28T00:26:33.802Z,14.45
2023-09-28T00:29:37.480Z,14.38
2023-09-28T00:32:42.877Z,14.33
2023-09-28T00:35:45.737Z,14.32
2023-09-28T00:38:52.134Z,14.31
2023-09-28T00:41:54.942Z,14.30
2023-09-28T00:45:00.638Z,14.27
2023-09-28T00:48:07.987Z,14.21
2023-09-28T00:51:10.643Z,14.15
2023-09-28T00:54:16.164Z,14.10
2023-09-28T00:57:19.239Z,14.07
2023-09-28T01:00:25.381Z,14.04
2023-09-28T01:03:28.579Z,13.98
2023-09-28T01:06:33.390Z,13.93
2023-09-28T01:09:39.478Z,13.93
2023-09-28T01:12:42.424Z,13.91
2023-09-28T01:15:48.898Z,13.87
2023-09-28T01:18:52.741Z,13.82
2023-09-28T01:21:57.748Z,13.77
2023-09-28T01:25:04.809Z,13.70
2023-09-28T01:28:08.417Z,13.65
2023-09-28T01:31:12.399Z,13.61
2023-09-28T01:34:15.247Z,13.59
2023-09-28T01:37:21.478Z,13.57
2023-09-28T01:40:25.776Z,13.54
2023-09-28T01:43:29.530Z,13.50
2023-09-28T01:46:32.296Z,13.48
2023-09-28T01:49:36.762Z,13.49
2023-09-28T01:52:39.520Z,13.44
2023-09-28T01:55:44.848Z,13.42
2023-09-28T01:58:50.770Z,13.39
2023-09-28T02:01:54.620Z,13.34
2023-09-28T02:04:58.973Z,13.33
2023-09-28T02:08:03.542Z,13.33
2023-09-28T02:11:08.736Z,13.36
2023-09-28T02:14:12.625Z,13.35
2023-09-28T02:17:15.531Z,13.33
2023-09-28T02:20:23.754Z,13.35
2023-09-28T02:23:27.591Z,13.35
2023-09-28T02:26:32.684Z,13.37
2023-09-28T02:29:35.608Z,13.35
2023-09-28T02:32:41.232Z,13.30
2023-09-28T02:35:45.263Z,13.26
2023-09-28T02:38:50.400Z,13.25
2023-09-28T02:41:56.909Z,13.24
2023-09-28T02:45:00.933Z,13.26
2023-09-28T02:48:05.707Z,13.26
2023-09-28T02:51:11.792Z,13.17
2023-09-28T02:54:14.801Z,13.06
2023-09-28T02:57:20.564Z,13.00
2023-09-28T03:00:25.957Z,12.94
2023-09-28T03:03:31.871Z,12.86
2023-09-28T03:06:38.502Z,12.82
2023-09-28T03:09:42.648Z,12.82
2023-09-28T03:12:48.697Z,12.78
2023-09-28T03:15:51.816Z,12.71
2023-09-28T03:18:58.330Z,12.66
2023-09-28T03:22:02.757Z,12.61
2023-09-28T03:25:11.488Z,12.54
2023-09-28T03:28:16.719Z,12.45
2023-09-28T03:31:20.885Z,12.36
2023-09-28T03:34:26.050Z,12.33
2023-09-28T03:37:30.002Z,12.32
2023-09-28T03:40:35.535Z,12.33
2023-09-28T03:43:40.732Z,12.31
2023-09-28T03:46:44.451Z,12.30
2023-09-28T03:49:48.201Z,12.27
2023-09-28T03:52:52.189Z,12.24
2023-09-28T03:55:56.358Z,12.21
2023-09-28T03:59:01.546Z,12.19
2023-09-28T04:02:06.005Z,12.19
2023-09-28T04:05:10.822Z,12.22
2023-09-28T04:08:14.641Z,12.20
2023-09-28T04:11:18.767Z,12.21
2023-09-28T04:14:23.919Z,12.22
2023-09-28T04:17:28.039Z,12.26
2023-09-28T04:20:32.042Z,12.27
2023-09-28T04:23:35.831Z,12.24
2023-09-28T04:26:39.728Z,12.19
2023-09-28T04:29:46.180Z,12.17
2023-09-28T04:32:52.105Z,12.17
2023-09-28T04:35:56.873Z,12.17
2023-09-28T04:39:00.743Z,12.13
2023-09-28T04:42:05.416Z,12.10
2023-09-28T04:45:13.172Z,12.10
2023-09-28T04:48:16.994Z,12.12
2023-09-28T04:51:20.673Z,12.18
2023-09-28T04:54:24.436Z,12.26
2023-09-28T04:57:28.809Z,12.36
2023-09-28T05:00:34.033Z,12.46
2023-09-28T05:03:38.172Z,12.54
2023-09-28T05:06:42.239Z,12.51
2023-09-28T05:09:46.308Z,12.48
2023-09-28T05:12:50.028Z,12.52
2023-09-28T05:15:55.349Z,12.57
2023-09-28T05:19:00.027Z,12.62
2023-09-28T05:22:06.684Z,12.64
2023-09-28T05:25:10.620Z,12.71
2023-09-28T05:28:14.460Z,12.77
2023-09-28T05:31:21.007Z,12.82
2023-09-28T05:34:25.647Z,12.90
2023-09-28T05:37:29.498Z,12.97
2023-09-28T05:40:33.692Z,13.02
2023-09-28T05:43:37.706Z,13.10
2023-09-28T05:46:42.821Z,13.16
2023-09-28T05:49:46.728Z,13.24
2023-09-28T05:52:53.449Z,13.34
2023-09-28T05:55:57.214Z,13.43
2023-09-28T05:59:00.888Z,13.54
2023-09-28T06:02:06.047Z,13.63
2023-09-28T06:05:11.221Z,13.72
2023-09-28T06:08:15.015Z,13.81
2023-09-28T06:11:20.008Z,13.92
2023-09-28T06:14:23.929Z,14.00
2023-09-28T06:17:29.175Z,14.08
2023-09-28T06:20:37.959Z,14.16
2023-09-28T06:23:43.728Z,14.26
2023-09-28T06:26:47.722Z,14.39
2023-09-28T06:29:54.510Z,14.50
2023-09-28T06:33:00.348Z,14.61
2023-09-28T06:36:05.204Z,14.72
2023-09-28T06:39:10.368Z,14.82
2023-09-28T06:42:30.989Z,14.93
2023-09-28T06:45:38.962Z,15.04
2023-09-28T06:48:44.265Z,15.17
2023-09-28T06:51:49.703Z,15.29
2023-09-28T06:54:53.672Z,15.40
2023-09-28T06:57:57.538Z,15.52
2023-09-28T07:01:01.406Z,15.63
2023-09-28T07:04:07.960Z,15.79
2023-09-28T07:07:14.841Z,15.90
2023-09-28T07:10:18.963Z,16.03
2023-09-28T07:13:22.737Z,16.15
2023-09-28T07:16:26.637Z,16.26
2023-09-28T07:19:32.052Z,16.40
2023-09-28T07:22:35.738Z,16.54
2023-09-28T07:25:41.502Z,16.66
2023-09-28T07:28:45.753Z,16.80
2023-09-28T07:31:49.904Z,16.91
2023-09-28T07:34:55.162Z,17.04
2023-09-28T07:37:59.052Z,17.20
2023-09-28T07:41:04.709Z,17.37
2023-09-28T07:44:08.732Z,17.53
2023-09-28T07:47:12.822Z,17.69
2023-09-28T07:50:18.712Z,17.84
2023-09-28T07:53:22.516Z,17.98
2023-09-28T07:56:26.592Z,18.15
2023-09-28T07:59:30.453Z,18.30
2023-09-28T08:02:34.626Z,18.45
2023-09-28T08:05:40.326Z,18.57
2023-09-28T08:08:44.224Z,18.71
2023-09-28T08:11:49.811Z,18.92
2023-09-28T08:14:53.933Z,19.10
2023-09-28T08:17:58.444Z,19.27
2023-09-28T08:21:10.565Z,19.44
2023-09-28T08:24:15.098Z,19.61
2023-09-28T08:27:18.881Z,19.77
2023-09-28T08:30:22.633Z,19.89
2023-09-28T08:33:26.500Z,20.01
2023-09-28T08:36:32.145Z,20.11
2023-09-28T08:39:38.247Z,20.21
2023-09-28T08:42:47.131Z,20.36
2023-09-28T08:45:54.616Z,20.48
2023-09-28T08:49:03.561Z,20.61
2023-09-28T08:52:09.313Z,20.70
2023-09-28T08:55:14.271Z,20.80
2023-09-28T08:58:19.345Z,20.89
2023-09-28T09:01:23.394Z,21.01
2023-09-28T09:04:27.534Z,21.08
2023-09-28T09:07:33.506Z,21.18
2023-09-28T09:10:39.075Z,21.26
2023-09-28T09:13:52.073Z,21.32
2023-09-28T09:16:57.379Z,21.46
2023-09-28T09:20:01.132Z,21.57
2023-09-28T09:23:15.175Z,21.69
2023-09-28T09:26:19.659Z,21.82
2023-09-28T09:29:23.711Z,21.91
2023-09-28T09:32:29.155Z,22.03
2023-09-28T09:35:32.921Z,22.11
2023-09-28T09:38:38.080Z,22.21
2023-09-28T09:41:48.124Z,22.37
2023-09-28T09:44:54.032Z,22.47
2023-09-28T09:47:58.983Z,22.52
2023-09-28T09:51:04.041Z,22.62
2023-09-28T09:54:12.796Z,22.73
2023-09-28T09:57:18.719Z,22.86
2023-09-28T10:00:25.160Z,23.02
2023-09-28T10:03:30.525Z,23.10
2023-09-28T10:06:34.853Z,23.19
2023-09-28T10:09:40.213Z,23.28
2023-09-28T10:12:44.750Z,23.32
2023-09-28T10:15:49.582Z,23.39
2023-09-28T10:18:55.684Z,23.48
2023-09-28T10:22:01.415Z,23.52
2023-09-28T10:25:07.821Z,23.63
2023-09-28T10:28:12.421Z,23.72
2023-09-28T10:31:18.567Z,23.82
2023-09-28T10:34:23.804Z,23.87
2023-09-28T10:37:28.420Z,23.91
2023-09-28T10:40:48.393Z,23.97
2023-09-28T10:43:58.447Z,24.04
2023-09-28T10:47:02.662Z,24.07
2023-09-28T10:50:09.793Z,24.03
2023-09-28T10:53:14.256Z,24.03
2023-09-28T10:56:19.960Z,24.09
2023-09-28T10:59:25.396Z,24.22
2023-09-28T11:02:32.990Z,24.34
2023-09-28T11:05:38.659Z,24.40
2023-09-28T11:08:44.690Z,24.47
2023-09-28T11:11:50.974Z,24.60
2023-09-28T11:14:57.099Z,24.70
2023-09-28T11:18:01.286Z,24.81
2023-09-28T11:21:05.689Z,24.85
2023-09-28T11:24:09.931Z,25.04
2023-09-28T11:27:15.997Z,25.30
2023-09-28T11:30:21.378Z,25.57
2023-09-28T11:33:25.137Z,25.78
2023-09-28T11:36:29.691Z,25.82
2023-09-28T11:39:34.215Z,25.88
2023-09-28T11:42:44.163Z,25.89
2023-09-28T11:45:50.462Z,25.93
2023-09-28T11:49:05.684Z,26.09
2023-09-28T11:52:09.739Z,26.36
2023-09-28T11:55:16.272Z,26.56
2023-09-28T11:58:24.890Z,26.71
2023-09-28T12:01:29.709Z,27.02
2023-09-28T12:04:33.909Z,27.47
2023-09-28T12:07:37.697Z,28.16
2023-09-28T12:10:41.509Z,29.87
2023-09-28T12:13:47.784Z,32.50
2023-09-28T12:16:53.329Z,34.66
2023-09-28T12:19:57.736Z,36.60
2023-09-28T12:23:03.781Z,37.13
2023-09-28T12:26:08.021Z,36.50
2023-09-28T12:29:13.823Z,35.91
2023-09-28T12:32:17.760Z,35.63
2023-09-28T12:35:22.648Z,34.79
2023-09-28T12:38:26.558Z,34.49
2023-09-28T12:41:31.097Z,35.62
2023-09-28T12:44:36.361Z,38.02
2023-09-28T12:47:40.475Z,40.72
2023-09-28T12:50:45.109Z,42.39
2023-09-28T12:53:48.960Z,43.97
2023-09-28T12:56:53.882Z,45.60
2023-09-28T12:59:58.997Z,46.51
2023-09-28T13:03:08.136Z,47.55
2023-09-28T13:06:12.029Z,48.63
2023-09-28T13:09:15.952Z,48.31
2023-09-28T13:12:19.799Z,47.93
2023-09-28T13:15:25.337Z,48.18
2023-09-28T13:18:30.532Z,48.76
2023-09-28T13:21:35.072Z,48.94
2023-09-28T13:24:39.144Z,49.41
2023-09-28T13:27:42.947Z,50.05
2023-09-28T13:30:48.356Z,50.71
2023-09-28T13:33:52.868Z,50.63
2023-09-28T13:36:57.469Z,50.20
2023-09-28T13:40:02.115Z,50.55
2023-09-28T13:43:07.013Z,50.80
2023-09-28T13:46:12.282Z,50.46
2023-09-28T13:49:16.488Z,49.88
2023-09-28T13:52:20.302Z,49.80
2023-09-28T13:55:24.404Z,50.04
2023-09-28T13:58:28.803Z,50.47
2023-09-28T14:01:34.115Z,50.10
2023-09-28T14:04:38.304Z,49.54
2023-09-28T14:07:42.072Z,49.10
2023-09-28T14:10:47.257Z,48.84
2023-09-28T14:13:51.278Z,49.12
2023-09-28T14:17:05.607Z,49.31
2023-09-28T14:20:16.595Z,49.42
2023-09-28T14:23:20.418Z,49.43
2023-09-28T14:26:24.362Z,49.36
2023-09-28T14:29:28.079Z,49.45
2023-09-28T14:32:33.405Z,49.25
2023-09-28T14:35:39.721Z,49.12
2023-09-28T14:38:43.414Z,48.92
2023-09-28T14:41:47.227Z,48.42
2023-09-28T14:44:53.135Z,48.12
2023-09-28T14:47:58.276Z,47.58
2023-09-28T14:51:02.160Z,47.24
2023-09-28T14:54:06.780Z,46.71
2023-09-28T14:57:11.344Z,46.37
2023-09-28T15:00:16.841Z,46.07
2023-09-28T15:03:22.950Z,45.73
2023-09-28T15:06:26.845Z,45.43
2023-09-28T15:09:30.838Z,44.95
2023-09-28T15:12:34.930Z,44.42
2023-09-28T15:15:41.100Z,43.74
2023-09-28T15:18:46.795Z,43.42
2023-09-28T15:21:50.908Z,42.87
2023-09-28T15:24:54.743Z,42.20
2023-09-28T15:27:58.583Z,41.85
2023-09-28T15:31:02.280Z,41.12
2023-09-28T15:34:07.657Z,40.51
2023-09-28T15:37:13.025Z,40.08
2023-09-28T15:40:16.913Z,39.72
2023-09-28T15:43:21.048Z,39.22
2023-09-28T15:46:24.840Z,38.62
2023-09-28T15:49:30.240Z,37.82
2023-09-28T15:52:34.345Z,37.04
2023-09-28T15:55:38.007Z,36.23
2023-09-28T15:58:41.808Z,35.25
2023-09-28T16:01:46.989Z,34.14
2023-09-28T16:04:52.170Z,32.80
2023-09-28T16:07:57.203Z,31.45
2023-09-28T16:11:01.675Z,29.96
2023-09-28T16:14:05.448Z,28.77
2023-09-28T16:17:09.996Z,27.69
2023-09-28T16:20:15.209Z,26.75
2023-09-28T16:23:19.808Z,25.96
2023-09-28T16:26:23.610Z,25.31
2023-09-28T16:29:27.789Z,24.74
2023-09-28T16:32:31.469Z,24.22
2023-09-28T16:35:36.747Z,23.76
2023-09-28T16:38:40.798Z,23.34
2023-09-28T16:41:46.241Z,22.99
2023-09-28T16:44:50.070Z,22.63
2023-09-28T16:47:54.852Z,22.32
2023-09-28T16:51:00.018Z,22.02
2023-09-28T16:54:05.259Z,21.76
2023-09-28T16:57:09.191Z,21.52
2023-09-28T17:00:14.138Z,21.32
2023-09-28T17:03:18.208Z,21.10
2023-09-28T17:06:23.452Z,20.93
2023-09-28T17:09:27.704Z,20.69
2023-09-28T17:12:43.381Z,20.46
2023-09-28T17:15:49.805Z,20.30
2023-09-28T17:18:53.943Z,20.05
2023-09-28T17:21:59.111Z,19.84
2023-09-28T17:25:03.288Z,19.71
2023-09-28T17:28:07.823Z,19.57
2023-09-28T17:31:11.834Z,19.49
2023-09-28T17:34:15.588Z,19.49
2023-09-28T17:37:21.057Z,19.51
2023-09-28T17:40:24.795Z,19.44
2023-09-28T17:43:28.741Z,19.34
2023-09-28T17:46:32.504Z,19.25
2023-09-28T17:49:36.339Z,19.12
2023-09-28T17:52:41.486Z,19.00
2023-09-28T17:55:47.110Z,18.95
2023-09-28T17:58:52.553Z,18.97
2023-09-28T18:01:57.211Z,18.97
2023-09-28T18:05:02.998Z,18.97
2023-09-28T18:08:09.018Z,18.90
2023-09-28T18:11:12.888Z,18.81
2023-09-28T18:14:17.137Z,18.75
2023-09-28T18:17:21.234Z,18.67
2023-09-28T18:20:25.315Z,18.63
2023-09-28T18:23:30.604Z,18.61
2023-09-28T18:26:34.798Z,18.60
2023-09-28T18:29:39.491Z,18.60
2023-09-28T18:32:43.277Z,18.57
2023-09-28T18:35:47.605Z,18.56
2023-09-28T18:39:07.544Z,18.52
2023-09-28T18:42:16.205Z,18.50
2023-09-28T18:45:20.041Z,18.50
2023-09-28T18:48:24.722Z,18.48
2023-09-28T18:51:28.623Z,18.43
2023-09-28T18:54:33.769Z,18.38
2023-09-28T18:57:38.002Z,18.33
2023-09-28T19:00:41.885Z,18.31
2023-09-28T19:03:45.793Z,18.30
2023-09-28T19:06:49.852Z,18.26
2023-09-28T19:09:55.548Z,18.23
2023-09-28T19:12:59.333Z,18.21
2023-09-28T19:16:06.408Z,18.19
2023-09-28T19:19:10.399Z,18.15
2023-09-28T19:22:16.915Z,18.11
2023-09-28T19:25:23.482Z,18.06
2023-09-28T19:28:28.274Z,18.01
2023-09-28T19:31:32.628Z,17.96
2023-09-28T19:34:36.238Z,17.87
2023-09-28T19:37:41.179Z,17.78
2023-09-28T19:40:46.463Z,17.64
2023-09-28T19:43:50.408Z,17.57
2023-09-28T19:46:54.335Z,17.52
2023-09-28T19:49:58.177Z,17.43
2023-09-28T19:53:02.092Z,17.34
2023-09-28T19:56:09.294Z,17.29
2023-09-28T19:59:12.978Z,17.22
2023-09-28T20:02:16.971Z,17.19
2023-09-28T20:05:20.776Z,17.15
2023-09-28T20:08:24.797Z,17.13
2023-09-28T20:11:30.037Z,17.06
2023-09-28T20:14:33.797Z,17.02
2023-09-28T20:17:38.214Z,16.99
2023-09-28T20:20:42.046Z,16.98
2023-09-28T20:23:45.696Z,16.93
2023-09-28T20:26:50.953Z,16.86
2023-09-28T20:29:55.095Z,16.83
2023-09-28T20:32:58.942Z,16.79
2023-09-28T20:36:14.036Z,16.73
2023-09-28T20:39:21.489Z,16.67
2023-09-28T20:42:31.485Z,16.60
2023-09-28T20:45:43.072Z,16.53
2023-09-28T20:48:48.417Z,16.44
2023-09-28T20:51:58.530Z,16.30
2023-09-28T20:55:06.960Z,16.26
2023-09-28T20:58:17.480Z,16.15
2023-09-28T21:01:22.712Z,16.02
2023-09-28T21:04:36.923Z,15.95
2023-09-28T21:07:46.631Z,15.89
2023-09-28T21:10:50.632Z,15.85
2023-09-28T21:13:56.205Z,15.79
2023-09-28T21:17:00.127Z,15.68
2023-09-28T21:20:04.346Z,15.56
2023-09-28T21:23:08.394Z,15.47
2023-09-28T21:26:13.241Z,15.41
2023-09-28T21:29:18.470Z,15.41
2023-09-28T21:32:22.713Z,15.41
2023-09-28T21:35:26.510Z,15.42
2023-09-28T21:38:30.360Z,15.43
2023-09-28T21:41:34.448Z,15.42
2023-09-28T21:44:39.973Z,15.39
2023-09-28T21:47:44.047Z,15.38
2023-09-28T21:50:47.885Z,15.37
2023-09-28T21:53:51.612Z,15.37
2023-09-28T21:56:55.685Z,15.39
2023-09-28T22:00:00.817Z,15.37
2023-09-28T22:03:06.655Z,15.30
2023-09-28T22:06:10.805Z,15.24
2023-09-28T22:09:15.159Z,15.18
2023-09-28T22:12:19.143Z,15.12
2023-09-28T22:15:24.898Z,15.09
2023-09-28T22:18:28.650Z,15.05
2023-09-28T22:21:32.511Z,15.04
2023-09-28T22:24:36.368Z,15.04
2023-09-28T22:27:41.008Z,15.01
2023-09-28T22:30:46.122Z,14.95
2023-09-28T22:33:50.035Z,14.95
2023-09-28T22:36:53.705Z,14.93
2023-09-28T22:40:02.832Z,14.87
2023-09-28T22:43:12.314Z,14.81
2023-09-28T22:46:17.981Z,14.77
2023-09-28T22:49:21.738Z,14.75
2023-09-28T22:52:27.226Z,14.72
2023-09-28T22:55:30.886Z,14.72
2023-09-28T22:58:34.903Z,14.71
2023-09-28T23:01:40.431Z,14.63
2023-09-28T23:04:44.175Z,14.54
2023-09-28T23:07:48.554Z,14.51
2023-09-28T23:10:55.307Z,14.52
2023-09-28T23:13:59.128Z,14.50
2023-09-28T23:17:04.284Z,14.46
2023-09-28T23:20:11.280Z,14.40
2023-09-28T23:23:17.625Z,14.37
2023-09-28T23:26:24.423Z,14.32
2023-09-28T23:29:30.028Z,14.32
2023-09-28T23:32:37.845Z,14.31
2023-09-28T23:35:42.534Z,14.28
2023-09-28T23:38:47.749Z,14.25
2023-09-28T23:41:53.622Z,14.18
2023-09-28T23:44:57.492Z,14.12
2023-09-28T23:48:05.655Z,14.12
2023-09-28T23:51:12.937Z,14.11
2023-09-28T23:54:18.259Z,14.10
2023-09-28T23:57:22.054Z,14.08
